createdAt,value
2022-09-05T00:01:27.508Z,4.10
2022-09-05T00:04:25.415Z,3.70
2022-09-05T00:07:57.777Z,4.10
2022-09-05T00:10:44.832Z,4.60
2022-09-05T00:14:01.587Z,4.27
2022-09-05T00:17:02.871Z,4.23
2022-09-05T00:24:19.457Z,3.67
2022-09-05T00:24:32.758Z,3.77
2022-09-05T00:26:30.345Z,3.73
2022-09-05T00:31:07.325Z,4.03
2022-09-05T00:32:47.017Z,3.30
2022-09-05T00:35:45.951Z,3.40
2022-09-05T00:38:37.304Z,3.97
2022-09-05T00:41:27.490Z,3.63
2022-09-05T00:44:18.067Z,3.73
2022-09-05T00:47:13.651Z,3.83
2022-09-05T00:50:04.787Z,3.83
2022-09-05T00:53:06.900Z,4.37
2022-09-05T00:56:04.466Z,3.83
2022-09-05T00:59:03.227Z,3.97
2022-09-05T01:01:55.013Z,4.20
2022-09-05T01:04:50.227Z,4.50
2022-09-05T01:07:49.492Z,4.10
2022-09-05T01:10:42.850Z,4.07
2022-09-05T01:13:37.203Z,4.10
2022-09-05T01:16:30.831Z,4.83
2022-09-05T01:19:26.825Z,4.80
2022-09-05T01:22:34.823Z,5.03
2022-09-05T01:25:34.879Z,5.10
2022-09-05T01:29:16.328Z,4.43
2022-09-05T01:31:43.332Z,4.33
2022-09-05T01:34:38.326Z,4.63
2022-09-05T01:37:34.323Z,3.80
2022-09-05T01:40:28.775Z,4.80
2022-09-05T01:43:23.780Z,3.63
2022-09-05T01:46:23.737Z,4.30
2022-09-05T01:49:25.016Z,4.63
2022-09-05T01:52:26.177Z,3.97
2022-09-05T01:55:23.897Z,4.40
2022-09-05T01:58:17.375Z,4.10
2022-09-05T02:01:32.042Z,4.07
2022-09-05T02:04:43.600Z,4.00
2022-09-05T02:07:45.002Z,5.00
2022-09-05T02:11:08.990Z,4.60
2022-09-05T02:14:00.536Z,4.10
2022-09-05T02:16:49.869Z,4.60
2022-09-05T02:19:44.336Z,4.17
2022-09-05T02:22:42.969Z,3.67
2022-09-05T02:26:01.509Z,3.50
2022-09-05T02:28:54.152Z,3.93
2022-09-05T02:31:46.486Z,3.70
2022-09-05T02:34:41.395Z,4.40
2022-09-05T02:40:53.475Z,4.87
2022-09-05T02:45:08.931Z,4.47
2022-09-05T02:45:20.202Z,3.80
2022-09-05T02:47:22.370Z,3.60
2022-09-05T02:55:49.363Z,4.20
2022-09-05T02:57:32.670Z,4.17
2022-09-05T02:57:34.883Z,4.70
2022-09-05T03:00:17.991Z,4.60
2022-09-05T03:03:16.545Z,4.47
2022-09-05T03:06:13.726Z,4.73
2022-09-05T03:09:18.992Z,4.40
2022-09-05T03:12:51.878Z,4.00
2022-09-05T03:16:13.764Z,4.70
2022-09-05T03:19:39.676Z,4.80
2022-09-05T03:23:10.881Z,5.00
2022-09-05T03:26:27.236Z,5.00
2022-09-05T03:29:58.514Z,4.73
2022-09-05T03:33:23.825Z,4.50
2022-09-05T03:36:35.218Z,3.97
2022-09-05T03:39:47.697Z,4.13
2022-09-05T03:43:00.170Z,4.87
2022-09-05T03:46:05.051Z,4.30
2022-09-05T03:51:06.547Z,4.43
2022-09-05T03:57:13.295Z,4.70
2022-09-05T03:57:27.200Z,4.97
2022-09-05T03:59:34.621Z,4.07
2022-09-05T04:05:08.919Z,4.70
2022-09-05T04:08:20.391Z,4.90
2022-09-05T04:08:50.308Z,5.10
2022-09-05T04:11:41.030Z,4.67
2022-09-05T04:14:41.917Z,4.50
2022-09-05T04:17:35.419Z,4.87
2022-09-05T04:20:31.179Z,4.20
2022-09-05T04:23:29.194Z,4.53
2022-09-05T04:26:36.082Z,4.80
2022-09-05T04:29:28.998Z,4.37
2022-09-05T04:32:27.378Z,4.57
2022-09-05T04:35:24.869Z,5.90
2022-09-05T04:38:14.965Z,5.10
2022-09-05T04:41:05.075Z,5.10
2022-09-05T04:43:57.319Z,5.00
2022-09-05T04:46:49.161Z,5.30
2022-09-05T04:49:42.049Z,4.67
2022-09-05T04:52:54.943Z,5.07
2022-09-05T04:55:50.484Z,4.80
2022-09-05T04:59:17.413Z,4.80
2022-09-05T05:06:14.076Z,5.10
2022-09-05T05:06:19.741Z,5.20
2022-09-05T05:08:28.803Z,4.47
2022-09-05T05:17:58.767Z,4.60
2022-09-05T05:18:15.330Z,4.67
2022-09-05T05:18:49.184Z,5.30
2022-09-05T05:21:31.344Z,4.57
2022-09-05T05:24:23.426Z,5.00
2022-09-05T05:27:19.682Z,4.73
2022-09-05T05:30:10.399Z,4.90
2022-09-05T05:33:00.378Z,5.70
2022-09-05T05:35:49.691Z,4.83
2022-09-05T05:38:46.361Z,4.70
2022-09-05T05:41:41.320Z,4.87
2022-09-05T05:44:31.580Z,4.53
2022-09-05T05:47:31.230Z,5.03
2022-09-05T05:50:33.143Z,4.23
2022-09-05T05:53:42.283Z,5.20
2022-09-05T05:56:57.010Z,4.37
2022-09-05T06:00:02.567Z,4.43
2022-09-05T06:03:27.254Z,4.60
2022-09-05T06:06:24.908Z,4.77
2022-09-05T06:14:52.969Z,4.83
2022-09-05T06:14:57.361Z,4.80
2022-09-05T06:16:59.071Z,4.73
2022-09-05T06:22:05.546Z,4.93
2022-09-05T06:24:27.236Z,5.40
2022-09-05T06:27:33.099Z,4.23
2022-09-05T06:30:25.256Z,4.37
2022-09-05T06:33:22.885Z,4.87
2022-09-05T06:36:23.368Z,3.50
2022-09-05T06:39:15.247Z,3.90
2022-09-05T06:42:42.194Z,3.97
2022-09-05T06:45:47.699Z,4.03
2022-09-05T06:49:30.603Z,4.10
2022-09-05T06:52:29.354Z,4.10
2022-09-05T06:55:45.213Z,3.90
2022-09-05T06:59:16.169Z,3.90
2022-09-05T07:02:14.839Z,4.27
2022-09-05T07:05:37.070Z,4.50
2022-09-05T07:08:35.441Z,4.13
2022-09-05T07:11:27.385Z,3.73
2022-09-05T07:14:22.196Z,3.97
2022-09-05T07:17:14.599Z,5.23
2022-09-05T07:20:05.489Z,3.87
2022-09-05T07:22:57.426Z,4.27
2022-09-05T07:26:06.085Z,4.00
2022-09-05T07:28:57.866Z,4.20
2022-09-05T07:31:51.709Z,4.00
2022-09-05T07:34:41.802Z,4.87
2022-09-05T07:37:35.836Z,4.07
2022-09-05T07:40:26.795Z,4.23
2022-09-05T07:43:22.638Z,4.20
2022-09-05T07:46:13.787Z,6.30
2022-09-05T07:49:05.530Z,5.23
2022-09-05T07:56:50.806Z,5.77
2022-09-05T07:57:03.982Z,4.70
2022-09-05T07:58:24.500Z,4.63
2022-09-05T08:01:14.496Z,4.40
2022-09-05T08:04:05.606Z,4.37
2022-09-05T08:07:46.094Z,3.97
2022-09-05T08:10:10.711Z,4.77
2022-09-05T08:13:23.639Z,4.93
2022-09-05T08:16:14.931Z,3.70
2022-09-05T08:19:12.737Z,3.93
2022-09-05T08:22:04.426Z,3.87
2022-09-05T08:25:03.144Z,3.43
2022-09-05T08:28:02.855Z,4.37
2022-09-05T08:30:55.935Z,4.50
2022-09-05T08:33:45.784Z,4.87
2022-09-05T08:36:37.856Z,4.10
2022-09-05T08:39:29.491Z,3.80
2022-09-05T08:42:28.202Z,3.80
2022-09-05T08:46:42.970Z,4.00
2022-09-05T08:48:39.958Z,3.30
2022-09-05T08:51:35.033Z,4.10
2022-09-05T08:54:36.409Z,4.30
2022-09-05T08:57:51.590Z,4.50
2022-09-05T09:00:50.445Z,3.83
2022-09-05T09:04:00.499Z,3.70
2022-09-05T09:07:47.285Z,3.73
2022-09-05T09:10:29.818Z,4.07
2022-09-05T09:13:34.655Z,4.43
2022-09-05T09:16:30.535Z,3.93
2022-09-05T09:19:29.443Z,4.90
2022-09-05T09:22:25.093Z,3.90
2022-09-05T09:25:18.432Z,5.13
2022-09-05T09:28:49.621Z,4.20
2022-09-05T09:31:57.947Z,4.57
2022-09-05T09:34:54.013Z,3.30
2022-09-05T09:38:08.498Z,3.93
2022-09-05T09:41:36.669Z,4.03
2022-09-05T09:45:21.659Z,4.70
2022-09-05T09:48:45.737Z,3.80
2022-09-05T09:51:54.874Z,4.17
2022-09-05T09:55:39.187Z,3.70
2022-09-05T09:58:40.889Z,4.33
2022-09-05T10:01:37.282Z,3.50
2022-09-05T10:10:34.262Z,3.67
2022-09-05T10:10:46.650Z,4.17
2022-09-05T10:12:32.221Z,4.57
2022-09-05T10:15:31.751Z,4.47
2022-09-05T10:18:36.207Z,4.60
2022-09-05T10:21:40.909Z,3.50
2022-09-05T10:25:01.833Z,3.53
2022-09-05T10:28:09.011Z,3.90
2022-09-05T10:32:20.713Z,4.40
2022-09-05T10:35:14.035Z,3.70
2022-09-05T10:37:37.005Z,3.40
2022-09-05T10:40:28.956Z,3.70
2022-09-05T10:43:23.140Z,3.37
2022-09-05T10:46:48.915Z,2.90
2022-09-05T10:49:36.242Z,3.10
2022-09-05T10:52:33.184Z,3.20
2022-09-05T10:55:26.086Z,3.57
2022-09-05T10:58:23.487Z,3.23
2022-09-05T11:02:26.703Z,3.07
2022-09-05T11:04:50.524Z,2.83
2022-09-05T11:07:44.472Z,2.70
2022-09-05T11:10:37.245Z,2.90
2022-09-05T11:13:43.250Z,3.30
2022-09-05T11:16:39.165Z,3.20
2022-09-05T11:19:32.484Z,3.33
2022-09-05T11:22:24.741Z,2.67
2022-09-05T11:25:18.229Z,3.03
2022-09-05T11:28:15.230Z,3.10
2022-09-05T11:31:10.251Z,2.73
2022-09-05T11:39:56.164Z,3.10
2022-09-05T11:40:04.817Z,3.00
2022-09-05T11:41:34.807Z,3.20
2022-09-05T11:44:30.429Z,2.90
2022-09-05T11:47:47.543Z,3.30
2022-09-05T11:51:35.619Z,2.97
2022-09-05T11:54:57.620Z,3.20
2022-09-05T11:57:57.094Z,3.67
2022-09-05T12:00:48.862Z,3.47
2022-09-05T12:04:12.937Z,2.80
2022-09-05T12:07:31.935Z,3.53
2022-09-05T12:10:46.074Z,3.40
2022-09-05T12:13:46.252Z,3.17
2022-09-05T12:16:47.972Z,3.20
2022-09-05T12:19:41.916Z,3.10
2022-09-05T12:22:34.628Z,3.40
2022-09-05T12:27:43.214Z,3.03
2022-09-05T12:36:11.512Z,2.93
2022-09-05T12:40:53.950Z,2.70
2022-09-05T12:41:42.040Z,3.03
2022-09-05T12:42:10.986Z,2.87
2022-09-05T12:42:13.739Z,3.40
2022-09-05T12:45:03.016Z,3.20
2022-09-05T12:47:59.840Z,3.27
2022-09-05T12:50:56.061Z,3.13
2022-09-05T12:53:46.072Z,3.00
2022-09-05T13:02:22.255Z,2.93
2022-09-05T13:03:01.752Z,2.80
2022-09-05T13:03:29.254Z,3.03
2022-09-05T13:06:25.582Z,2.53
2022-09-05T13:09:21.180Z,3.20
2022-09-05T13:15:02.310Z,3.17
2022-09-05T13:15:28.233Z,2.73
2022-09-05T13:18:18.752Z,2.30
2022-09-05T13:21:13.172Z,2.97
2022-09-05T13:24:10.002Z,2.50
2022-09-05T13:27:05.636Z,2.43
2022-09-05T13:30:57.717Z,2.50
2022-09-05T13:38:00.006Z,2.57
2022-09-05T13:38:10.023Z,2.50
2022-09-05T13:39:38.571Z,2.77
2022-09-05T13:42:30.871Z,2.50
2022-09-05T13:45:19.731Z,2.47
2022-09-05T13:48:28.335Z,2.70
2022-09-05T13:51:37.199Z,2.20
2022-09-05T13:54:37.652Z,2.43
2022-09-05T13:57:33.311Z,2.40
2022-09-05T14:00:51.721Z,2.40
2022-09-05T14:05:05.439Z,2.67
2022-09-05T14:08:18.022Z,3.03
2022-09-05T14:11:44.843Z,2.60
2022-09-05T14:17:55.871Z,2.40
2022-09-05T14:21:13.934Z,2.10
2022-09-05T14:24:07.670Z,2.10
2022-09-05T14:27:08.814Z,2.43
2022-09-05T14:29:57.824Z,2.20
2022-09-05T14:37:42.985Z,2.30
2022-09-05T14:37:55.238Z,2.20
2022-09-05T14:40:00.784Z,1.80
2022-09-05T14:43:03.992Z,2.53
2022-09-05T14:46:23.806Z,2.67
2022-09-05T14:49:36.371Z,2.53
2022-09-05T14:52:27.036Z,2.40
2022-09-05T14:55:20.736Z,2.73
2022-09-05T15:02:45.187Z,2.27
2022-09-05T15:02:46.198Z,2.47
2022-09-05T15:04:41.050Z,2.10
2022-09-05T15:07:35.288Z,2.13
2022-09-05T15:12:15.296Z,2.20
2022-09-05T15:13:52.954Z,2.20
2022-09-05T15:16:45.722Z,2.10
2022-09-05T15:20:05.742Z,2.00
2022-09-05T15:22:56.225Z,2.23
2022-09-05T15:25:50.567Z,2.30
2022-09-05T15:28:42.643Z,1.90
2022-09-05T15:31:31.595Z,2.50
2022-09-05T15:34:24.860Z,2.30
2022-09-05T15:37:28.398Z,2.00
2022-09-05T15:40:22.941Z,1.97
2022-09-05T15:43:17.550Z,2.10
2022-09-05T15:46:06.928Z,2.27
2022-09-05T15:48:57.713Z,1.87
2022-09-05T15:51:49.575Z,2.43
2022-09-05T15:54:40.249Z,12.20
2022-09-05T15:57:30.555Z,2.50
2022-09-05T16:00:42.337Z,2.30
2022-09-05T16:06:41.395Z,1.70
2022-09-05T16:10:41.438Z,2.43
2022-09-05T16:10:49.483Z,2.20
2022-09-05T16:13:13.432Z,2.10
2022-09-05T16:23:13.955Z,1.93
2022-09-05T16:23:19.951Z,1.93
2022-09-05T16:23:24.619Z,1.70
2022-09-05T16:25:40.959Z,1.90
2022-09-05T16:28:31.607Z,2.23
2022-09-05T16:31:25.955Z,2.10
2022-09-05T16:34:21.745Z,1.87
2022-09-05T16:37:13.619Z,2.10
2022-09-05T16:40:08.480Z,2.17
2022-09-05T16:43:01.039Z,2.30
2022-09-05T16:45:55.412Z,2.27
2022-09-05T16:48:50.103Z,1.93
2022-09-05T16:51:45.870Z,2.30
2022-09-05T16:54:44.717Z,2.90
2022-09-05T16:57:35.629Z,2.20
2022-09-05T17:00:24.255Z,2.50
2022-09-05T17:03:28.725Z,2.23
2022-09-05T17:06:26.204Z,2.70
2022-09-05T17:09:21.771Z,2.30
2022-09-05T17:12:13.379Z,2.67
2022-09-05T17:15:04.054Z,2.50
2022-09-05T17:18:19.152Z,2.40
2022-09-05T17:21:08.390Z,2.43
2022-09-05T17:29:17.918Z,2.60
2022-09-05T17:29:30.533Z,2.30
2022-09-05T17:34:33.946Z,3.10
2022-09-05T17:37:59.458Z,2.80
2022-09-05T17:41:29.379Z,2.80
2022-09-05T17:44:21.696Z,2.20
2022-09-05T17:47:14.707Z,2.70
2022-09-05T17:50:17.431Z,8.83
2022-09-05T17:53:25.214Z,2.87
2022-09-05T17:56:34.007Z,2.80
2022-09-05T17:59:27.030Z,3.20
2022-09-05T18:02:33.153Z,3.57
2022-09-05T18:06:04.731Z,3.10
2022-09-05T18:08:53.343Z,3.40
2022-09-05T18:11:44.883Z,2.90
2022-09-05T18:14:46.807Z,3.43
2022-09-05T18:17:59.505Z,2.60
2022-09-05T18:24:12.057Z,3.17
2022-09-05T18:27:15.074Z,3.00
2022-09-05T18:30:27.369Z,2.90
2022-09-05T18:34:03.742Z,3.67
2022-09-05T18:36:35.411Z,3.13
2022-09-05T18:39:46.759Z,2.67
2022-09-05T18:42:38.924Z,3.40
2022-09-05T18:45:28.603Z,3.30
2022-09-05T18:48:29.715Z,3.23
2022-09-05T18:51:22.059Z,3.83
2022-09-05T18:54:20.371Z,3.23
2022-09-05T18:57:26.765Z,9.30
2022-09-05T19:00:26.013Z,4.67
2022-09-05T19:03:27.819Z,4.10
2022-09-05T19:06:35.127Z,3.10
2022-09-05T19:09:29.169Z,3.17
2022-09-05T19:12:33.277Z,2.90
2022-09-05T19:15:29.899Z,2.80
2022-09-05T19:18:27.187Z,3.90
2022-09-05T19:21:20.330Z,3.50
2022-09-05T19:24:11.453Z,3.37
2022-09-05T19:28:23.380Z,3.17
2022-09-05T19:37:03.294Z,4.43
2022-09-05T19:37:04.607Z,4.40
2022-09-05T19:37:07.200Z,3.83
2022-09-05T19:43:28.361Z,3.97
2022-09-05T19:47:42.241Z,3.33
2022-09-05T19:47:42.804Z,4.00
2022-09-05T19:49:23.152Z,3.97
2022-09-05T19:52:16.737Z,3.30
2022-09-05T19:55:20.525Z,4.00
2022-09-05T19:58:18.837Z,4.00
2022-09-05T20:01:20.120Z,3.40
2022-09-05T20:04:09.400Z,4.30
2022-09-05T20:06:58.600Z,4.13
2022-09-05T20:09:48.968Z,3.93
2022-09-05T20:12:39.148Z,4.13
2022-09-05T20:15:34.654Z,4.20
2022-09-05T20:18:28.553Z,4.27
2022-09-05T20:21:23.289Z,3.70
2022-09-05T20:24:12.200Z,4.00
2022-09-05T20:27:02.093Z,4.07
2022-09-05T20:29:55.980Z,3.80
2022-09-05T20:32:49.495Z,4.20
2022-09-05T20:42:03.773Z,3.80
2022-09-05T20:43:23.804Z,3.60
2022-09-05T20:43:35.594Z,3.80
2022-09-05T20:45:11.562Z,3.80
2022-09-05T20:54:13.325Z,4.60
2022-09-05T20:54:18.864Z,4.20
2022-09-05T20:54:35.086Z,4.07
2022-09-05T20:57:30.765Z,4.00
2022-09-05T21:00:22.008Z,5.20
2022-09-05T21:03:15.839Z,4.27
2022-09-05T21:06:23.453Z,4.13
2022-09-05T21:09:25.410Z,4.30
2022-09-05T21:12:14.994Z,4.20
2022-09-05T21:15:52.050Z,4.40
2022-09-05T21:18:33.653Z,3.77
2022-09-05T21:21:28.601Z,4.20
2022-09-05T21:24:23.733Z,4.20
2022-09-05T21:27:17.290Z,4.30
2022-09-05T21:30:21.825Z,4.30
2022-09-05T21:33:18.731Z,4.20
2022-09-05T21:36:07.744Z,4.50
2022-09-05T21:38:57.770Z,4.80
2022-09-05T21:41:48.898Z,4.57
2022-09-05T21:47:46.313Z,4.30
2022-09-05T21:47:53.990Z,4.10
2022-09-05T21:50:46.128Z,3.93
2022-09-05T21:59:15.200Z,4.13
2022-09-05T21:59:25.702Z,4.43
2022-09-05T22:00:10.635Z,4.10
2022-09-05T22:03:00.270Z,4.53
2022-09-05T22:05:52.884Z,4.60
2022-09-05T22:09:01.220Z,4.93
2022-09-05T22:11:54.479Z,5.47
2022-09-05T22:14:43.403Z,4.30
2022-09-05T22:17:32.454Z,4.83
2022-09-05T22:20:22.731Z,4.70
2022-09-05T22:23:12.125Z,4.43
2022-09-05T22:26:01.400Z,5.57
2022-09-05T22:28:51.399Z,4.50
2022-09-05T22:31:40.209Z,4.90
2022-09-05T22:34:29.025Z,4.80
2022-09-05T22:37:17.893Z,4.70
2022-09-05T22:40:09.632Z,5.40
2022-09-05T22:42:59.326Z,4.20
2022-09-05T22:45:50.055Z,4.93
2022-09-05T22:48:38.699Z,4.27
2022-09-05T22:51:27.233Z,4.50
2022-09-05T22:54:15.791Z,4.37
2022-09-05T22:57:05.273Z,4.53
2022-09-05T22:59:54.163Z,4.50
2022-09-05T23:02:45.392Z,6.10
2022-09-05T23:05:36.564Z,4.33
2022-09-05T23:08:25.183Z,4.97
2022-09-05T23:11:15.748Z,4.40
2022-09-05T23:14:04.296Z,4.73
2022-09-05T23:16:52.817Z,4.50
2022-09-05T23:19:42.720Z,4.50
2022-09-05T23:22:31.231Z,4.57
2022-09-05T23:25:21.491Z,4.73
2022-09-05T23:28:10.768Z,5.33
2022-09-05T23:31:00.287Z,4.50
2022-09-05T23:33:49.188Z,4.70
2022-09-05T23:36:39.064Z,4.93
2022-09-05T23:39:27.785Z,5.20
2022-09-05T23:42:16.641Z,4.83
2022-09-05T23:45:05.771Z,5.00
2022-09-05T23:47:54.536Z,5.20
2022-09-05T23:50:43.079Z,5.30
2022-09-05T23:53:32.966Z,4.90
2022-09-05T23:56:21.497Z,5.30
2022-09-05T23:59:11.614Z,5.10
